Time;durP1;ratioP1;P1;durP2;ratioP2;P2;SDS_P1;SDS_P2;PMS_P1;PMS_P2;Temp;Humidity;BMP_temperature;BMP_pressure;BME280_temperature;BME280_humidity;BME280_pressure;Samples;Min_cycle;Max_cycle;Signal;HPM_P1;HPM_P2
2023/05/04 00:00:08;;;;;;;3.67;1.98;;;;;;;11.80;81.80;100305.34;6249621;28;20451;-75
2023/05/04 00:03:11;;;;;;;2.95;1.70;;;;;;;11.86;81.42;100303.19;6249645;28;20045;-74
2023/05/04 00:06:12;;;;;;;2.30;1.50;;;;;;;11.76;81.47;100309.09;6248542;28;20045;-75
2023/05/04 00:09:14;;;;;;;3.45;1.70;;;;;;;11.80;81.55;100306.19;6248418;28;20053;-75
2023/05/04 00:12:17;;;;;;;6.00;1.95;;;;;;;11.72;81.37;100305.00;6249317;28;20394;-74
2023/05/04 00:15:17;;;;;;;4.40;1.73;;;;;;;11.77;81.39;100310.75;6265291;28;20049;-75
2023/05/04 00:18:18;;;;;;;1.98;1.27;;;;;;;11.84;81.63;100310.28;6273949;28;20476;-74
2023/05/04 00:21:19;;;;;;;3.63;2.25;;;;;;;11.71;81.83;100301.50;6272565;28;20057;-75
2023/05/04 00:24:20;;;;;;;3.25;1.60;;;;;;;11.73;82.26;100302.25;6272700;28;20045;-71
2023/05/04 00:27:21;;;;;;;2.42;1.40;;;;;;;11.63;82.47;100304.63;6273605;28;20061;-72
2023/05/04 00:30:22;;;;;;;1.88;1.35;;;;;;;11.77;81.93;100314.19;6272599;28;20103;-71
2023/05/04 00:33:23;;;;;;;2.03;1.65;;;;;;;11.77;81.93;100306.34;6272223;28;20079;-71
2023/05/04 00:36:26;;;;;;;3.00;1.83;;;;;;;11.81;82.16;100309.63;6272373;28;20045;-71
2023/05/04 00:39:28;;;;;;;3.13;1.80;;;;;;;11.63;82.92;100307.22;6273346;28;20060;-71
2023/05/04 00:42:29;;;;;;;2.95;1.77;;;;;;;11.76;82.69;100309.94;6273107;28;20126;-71
2023/05/04 00:45:30;;;;;;;4.15;2.00;;;;;;;11.60;83.76;100309.19;6254214;28;20500;-71
2023/05/04 00:48:31;;;;;;;3.20;1.90;;;;;;;11.52;84.55;100309.66;6259158;28;20053;-71
2023/05/04 00:51:33;;;;;;;2.65;1.65;;;;;;;11.37;85.80;100300.13;6271713;28;20111;-71
2023/05/04 00:54:36;;;;;;;2.40;1.77;;;;;;;11.47;85.23;100299.47;6271705;28;20056;-71
2023/05/04 00:57:40;;;;;;;7.78;2.15;;;;;;;11.33;85.55;100296.88;6271823;28;20057;-72
2023/05/04 01:00:43;;;;;;;1.67;1.58;;;;;;;11.45;85.44;100287.44;6272746;28;20056;-71
2023/05/04 01:03:44;;;;;;;3.15;1.83;;;;;;;11.32;85.91;100289.09;6272885;28;20128;-75
2023/05/04 01:07:07;;;;;;;3.80;1.80;;;;;;;11.44;85.24;100283.97;6271522;28;20417;-74
2023/05/04 01:10:16;;;;;;;2.40;1.60;;;;;;;11.45;84.91;100290.91;6258854;28;20493;-75
2023/05/04 01:13:23;;;;;;;2.78;1.65;;;;;;;11.56;84.61;100292.00;6251614;28;20049;-74
2023/05/04 01:16:24;;;;;;;1.55;1.23;;;;;;;11.41;85.06;100283.34;6272557;28;20049;-75
2023/05/04 01:19:27;;;;;;;1.85;1.45;;;;;;;11.56;84.45;100290.22;6272290;28;20102;-75
2023/05/04 01:22:29;;;;;;;1.33;1.23;;;;;;;11.50;84.56;100290.59;6272510;28;20059;-75
2023/05/04 01:25:34;;;;;;;3.53;1.98;;;;;;;11.49;84.22;100295.00;6271040;28;20045;-75
2023/05/04 01:28:58;;;;;;;3.05;1.85;;;;;;;11.52;84.63;100293.97;6270991;28;20484;-75
2023/05/04 01:32:05;;;;;;;1.90;1.50;;;;;;;11.41;84.86;100294.63;6251060;28;20053;-74
2023/05/04 01:35:06;;;;;;;3.47;1.65;;;;;;;11.45;84.55;100282.22;6272031;28;20045;-74
2023/05/04 01:38:07;;;;;;;2.20;1.70;;;;;;;11.41;85.31;100284.19;6270666;28;20091;-75
2023/05/04 01:41:08;;;;;;;1.83;1.48;;;;;;;11.22;85.85;100287.06;6272407;28;20405;-75
2023/05/04 01:44:09;;;;;;;4.15;1.73;;;;;;;11.25;86.32;100286.03;6269787;28;20045;-74
2023/05/04 01:47:10;;;;;;;2.58;1.83;;;;;;;11.41;85.67;100285.97;6270053;28;20106;-74
2023/05/04 01:50:11;;;;;;;2.17;1.60;;;;;;;11.36;85.38;100280.16;6270273;28;20056;-74
2023/05/04 01:53:12;;;;;;;3.80;1.73;;;;;;;11.19;85.69;100275.94;6271556;28;20136;-75
2023/05/04 01:56:13;;;;;;;2.85;2.15;;;;;;;11.36;85.01;100274.94;6271146;28;20493;-75
2023/05/04 01:59:16;;;;;;;2.42;1.58;;;;;;;11.23;86.07;100280.91;6262989;28;20135;-74
2023/05/04 02:02:18;;;;;;;5.28;2.20;;;;;;;11.32;85.42;100274.28;6245490;28;20053;-74
2023/05/04 02:05:18;;;;;;;3.55;2.08;;;;;;;11.14;86.22;100275.38;6246533;28;20049;-74
2023/05/04 02:08:20;;;;;;;2.20;1.52;;;;;;;11.23;85.11;100273.06;6246724;28;20053;-75
2023/05/04 02:11:21;;;;;;;3.57;2.00;;;;;;;11.18;85.25;100277.75;6246349;28;20399;-74
2023/05/04 02:14:24;;;;;;;1.77;1.40;;;;;;;11.27;85.37;100269.34;6245346;28;20049;-75
2023/05/04 02:17:25;;;;;;;2.40;1.60;;;;;;;11.12;86.24;100270.25;6245265;28;20052;-75
2023/05/04 02:20:26;;;;;;;1.52;1.42;;;;;;;11.09;85.69;100263.44;6245115;28;20053;-74
2023/05/04 02:23:27;;;;;;;2.03;1.27;;;;;;;10.98;86.41;100275.47;6246414;28;20553;-74
2023/05/04 02:26:27;;;;;;;2.13;1.55;;;;;;;11.10;86.53;100259.06;6246348;28;20477;-75
2023/05/04 02:29:29;;;;;;;5.03;2.17;;;;;;;10.95;86.03;100268.63;6245025;28;20558;-74
2023/05/04 02:32:30;;;;;;;2.17;1.83;;;;;;;11.08;86.10;100276.59;6244857;28;20092;-74
2023/05/04 02:35:33;;;;;;;7.20;1.90;;;;;;;11.07;86.19;100277.53;6245193;28;20494;-74
2023/05/04 02:38:36;;;;;;;1.40;1.13;;;;;;;11.10;86.31;100279.97;6245088;28;20064;-74
2023/05/04 02:41:37;;;;;;;2.25;1.52;;;;;;;10.98;86.01;100276.31;6246202;28;20503;-74
2023/05/04 02:44:38;;;;;;;4.43;1.50;;;;;;;10.89;85.74;100263.78;6245833;28;20049;-74
2023/05/04 02:47:38;;;;;;;1.77;1.67;;;;;;;10.91;86.69;100266.31;6244985;28;20075;-74
2023/05/04 02:50:42;;;;;;;2.72;1.60;;;;;;;10.82;87.61;100262.47;6246277;28;20110;-71
2023/05/04 02:53:43;;;;;;;1.33;1.23;;;;;;;10.83;86.73;100251.94;6244591;28;20085;-75
2023/05/04 02:56:46;;;;;;;1.80;1.27;;;;;;;10.82;87.38;100257.25;6244776;28;20060;-75
2023/05/04 02:59:47;;;;;;;2.17;1.67;;;;;;;10.66;87.73;100259.91;6258697;28;20060;-74
2023/05/04 03:02:47;;;;;;;3.30;1.55;;;;;;;10.72;87.75;100256.94;6269264;28;20071;-74
2023/05/04 03:05:48;;;;;;;1.75;1.58;;;;;;;10.67;88.36;100269.44;6268734;28;20557;-74
2023/05/04 03:08:51;;;;;;;2.03;1.35;;;;;;;10.62;87.97;100263.63;6273829;28;20049;-74
2023/05/04 03:11:53;;;;;;;4.60;1.67;;;;;;;10.65;87.96;100263.47;6256862;28;20049;-75
2023/05/04 03:14:54;;;;;;;1.60;1.17;;;;;;;10.67;88.44;100266.81;6250655;28;20160;-74
2023/05/04 03:17:55;;;;;;;2.35;1.63;;;;;;;10.66;88.23;100268.56;6259671;28;20055;-75
2023/05/04 03:20:56;;;;;;;2.17;1.52;;;;;;;10.65;87.85;100272.13;6273916;28;20412;-74
2023/05/04 03:23:58;;;;;;;4.05;1.48;;;;;;;10.71;87.32;100278.75;6275556;28;20060;-74
2023/05/04 03:26:58;;;;;;;2.13;1.38;;;;;;;10.78;87.31;100281.84;6275263;28;20087;-74
2023/05/04 03:29:59;;;;;;;2.30;1.40;;;;;;;10.70;87.75;100282.28;6273735;28;20045;-74
2023/05/04 03:33:00;;;;;;;3.38;1.67;;;;;;;10.69;87.92;100280.63;6274815;28;20048;-74
2023/05/04 03:36:01;;;;;;;4.15;1.70;;;;;;;10.64;88.61;100277.41;6273799;28;20041;-74
2023/05/04 03:39:02;;;;;;;1.75;1.30;;;;;;;10.59;88.85;100269.88;6273127;28;20045;-74
2023/05/04 03:42:03;;;;;;;5.63;1.70;;;;;;;10.62;88.83;100268.84;6273452;28;20512;-74
2023/05/04 03:45:05;;;;;;;2.42;1.35;;;;;;;10.72;88.37;100277.81;6269102;28;20512;-74
2023/05/04 03:48:08;;;;;;;2.70;1.97;;;;;;;10.55;88.86;100286.63;6273234;28;20388;-74
2023/05/04 03:51:10;;;;;;;2.60;1.40;;;;;;;10.70;88.81;100295.34;6252313;28;20053;-74
2023/05/04 03:54:11;;;;;;;1.75;1.23;;;;;;;10.58;89.19;100294.25;6257260;28;20045;-74
2023/05/04 03:57:11;;;;;;;2.03;1.30;;;;;;;10.57;88.94;100292.59;6274415;28;20102;-74
2023/05/04 04:00:14;;;;;;;2.95;1.77;;;;;;;10.58;88.97;100290.81;6273095;28;20102;-71
2023/05/04 04:03:15;;;;;;;;;;;;;;;10.66;89.72;100289.44;6273470;28;20140;-71
2023/05/04 04:06:20;;;;;;;2.55;1.50;;;;;;;10.62;89.88;100289.72;6272033;28;19927;-72
2023/05/04 04:09:21;;;;;;;1.60;1.10;;;;;;;10.76;89.36;100288.94;6272791;28;20413;-71
2023/05/04 04:12:22;;;;;;;2.00;1.20;;;;;;;10.86;87.47;100296.13;6271992;28;20049;-71
2023/05/04 04:15:22;;;;;;;2.45;1.60;;;;;;;10.82;87.59;100297.22;6272377;28;20120;-71
2023/05/04 04:18:26;;;;;;;2.00;1.40;;;;;;;10.99;87.51;100303.25;6264273;28;20045;-72
2023/05/04 04:21:27;;;;;;;3.72;1.83;;;;;;;11.05;86.74;100298.50;6265803;28;20052;-71
2023/05/04 04:24:28;;;;;;;3.65;1.70;;;;;;;11.12;86.00;100296.38;6272134;28;20051;-72
2023/05/04 04:27:31;;;;;;;1.60;1.27;;;;;;;11.04;86.69;100299.44;6264035;28;20053;-71
2023/05/04 04:30:33;;;;;;;2.05;1.50;;;;;;;11.03;86.73;100305.56;6247536;28;20080;-72
2023/05/04 04:33:35;;;;;;;2.55;1.58;;;;;;;10.98;87.24;100299.81;6248833;28;20060;-72
2023/05/04 04:36:38;;;;;;;2.97;1.88;;;;;;;11.15;86.10;100298.78;6264312;28;20049;-71
2023/05/04 04:39:41;;;;;;;5.88;1.45;;;;;;;11.20;86.32;100307.22;6262075;28;20426;-72
2023/05/04 04:42:42;;;;;;;1.60;1.17;;;;;;;11.19;86.43;100313.34;6248218;28;20560;-72
2023/05/04 04:45:44;;;;;;;2.88;1.67;;;;;;;11.30;86.16;100320.53;6259427;28;20108;-72
2023/05/04 04:48:46;;;;;;;2.60;1.80;;;;;;;11.45;84.74;100313.59;6251214;28;20053;-72
2023/05/04 04:51:47;;;;;;;2.78;1.80;;;;;;;11.64;83.98;100319.34;6248120;28;20482;-71
2023/05/04 04:54:48;;;;;;;14.50;1.88;;;;;;;11.88;82.29;100324.00;6246760;28;20045;-71
2023/05/04 04:57:49;;;;;;;2.33;1.38;;;;;;;12.01;82.62;100332.78;6250690;28;20045;-71
2023/05/04 05:00:54;;;;;;;2.88;1.40;;;;;;;11.93;81.53;100342.06;6271624;28;20107;-71
2023/05/04 05:03:55;;;;;;;2.72;1.63;;;;;;;12.01;81.02;100351.09;6271127;28;20140;-70
2023/05/04 05:06:58;;;;;;;1.77;1.40;;;;;;;12.13;81.75;100346.88;6272533;28;20053;-71
2023/05/04 05:10:00;;;;;;;2.35;1.75;;;;;;;12.28;80.74;100347.69;6272551;28;20048;-70
2023/05/04 05:13:01;;;;;;;3.20;2.08;;;;;;;12.41;80.00;100353.81;6271007;28;20163;-71
2023/05/04 05:16:02;;;;;;;1.75;1.23;;;;;;;12.44;79.53;100353.63;6271238;28;20044;-71
2023/05/04 05:19:05;;;;;;;3.00;1.67;;;;;;;12.34;78.61;100344.69;6271041;28;20122;-70
2023/05/04 05:22:06;;;;;;;4.10;1.55;;;;;;;12.45;79.01;100350.06;6272361;28;20057;-71
2023/05/04 05:25:07;;;;;;;2.40;1.83;;;;;;;12.77;77.05;100355.00;6270830;28;20052;-71
2023/05/04 05:28:09;;;;;;;1.63;1.52;;;;;;;12.70;77.16;100354.56;6272286;28;20059;-73
2023/05/04 05:31:10;;;;;;;;;;;;;;;13.07;75.66;100361.75;6271864;28;20109;-74
2023/05/04 05:34:11;;;;;;;1.55;1.45;;;;;;;13.41;74.97;100363.00;6270781;28;20304;-73
2023/05/04 05:37:12;;;;;;;2.55;1.50;;;;;;;13.63;74.24;100346.66;6271846;28;20148;-73
2023/05/04 05:40:14;;;;;;;2.17;1.25;;;;;;;13.43;72.15;100361.13;6270917;28;20135;-74
2023/05/04 05:43:15;;;;;;;2.63;1.58;;;;;;;13.73;71.33;100351.25;6271294;28;20497;-70
2023/05/04 05:46:17;;;;;;;2.50;1.65;;;;;;;13.68;71.44;100352.41;6269961;28;20048;-74
2023/05/04 05:49:17;;;;;;;2.55;1.42;;;;;;;14.14;71.01;100368.50;6270532;28;20053;-71
2023/05/04 05:52:21;;;;;;;2.90;1.40;;;;;;;14.23;69.40;100366.06;6270377;28;20075;-74
2023/05/04 05:55:21;;;;;;;4.68;1.73;;;;;;;14.44;70.50;100368.91;6270159;28;20041;-71
2023/05/04 05:58:22;;;;;;;2.10;1.33;;;;;;;14.57;68.47;100368.91;6258882;28;20049;-73
2023/05/04 06:01:25;;;;;;;2.17;1.60;;;;;;;14.76;67.38;100364.94;6243945;28;20061;-71
2023/05/04 06:04:26;;;;;;;9.00;1.65;;;;;;;15.01;65.55;100354.28;6246551;28;20158;-74
2023/05/04 06:07:26;;;;;;;6.07;1.73;;;;;;;14.83;66.06;100347.78;6245672;28;20049;-71
2023/05/04 06:10:28;;;;;;;2.07;1.57;;;;;;;14.72;66.37;100348.53;6246555;28;20501;-74
2023/05/04 06:13:29;;;;;;;1.48;1.27;;;;;;;14.56;67.32;100364.59;6246421;28;20046;-73
2023/05/04 06:16:29;;;;;;;3.17;1.55;;;;;;;14.62;67.76;100365.94;6246868;28;20148;-71
2023/05/04 06:19:34;;;;;;;1.75;1.30;;;;;;;14.69;66.66;100362.75;6246382;28;20060;-71
2023/05/04 06:22:35;;;;;;;3.58;1.60;;;;;;;14.86;65.46;100363.28;6247041;28;20053;-71
2023/05/04 06:25:36;;;;;;;2.25;1.50;;;;;;;14.87;65.31;100357.94;6245918;28;20053;-71
2023/05/04 06:28:39;;;;;;;4.43;1.80;;;;;;;14.87;65.48;100349.22;6245306;28;20060;-71
2023/05/04 06:31:41;;;;;;;5.40;1.45;;;;;;;14.97;65.83;100360.72;6246027;28;20516;-71
2023/05/04 06:34:41;;;;;;;1.95;1.42;;;;;;;15.21;63.95;100360.66;6244967;28;20045;-71
2023/05/04 06:37:45;;;;;;;4.05;1.75;;;;;;;15.32;63.58;100386.97;6244961;28;20049;-71
2023/05/04 06:40:49;;;;;;;2.70;1.33;;;;;;;15.37;64.04;100385.78;6246084;28;20068;-71
2023/05/04 06:43:55;;;;;;;1.67;1.30;;;;;;;15.17;63.91;100379.41;6249174;28;20062;-72
2023/05/04 06:46:56;;;;;;;3.10;1.90;;;;;;;14.84;65.22;100373.06;6250998;28;20057;-72
2023/05/04 06:49:57;;;;;;;2.58;1.52;;;;;;;14.95;66.02;100377.53;6249984;28;20454;-71
2023/05/04 06:53:03;;;;;;;2.08;1.40;;;;;;;14.83;65.29;100385.38;6249623;28;20045;-71
2023/05/04 06:56:04;;;;;;;2.80;1.60;;;;;;;15.07;64.95;100393.25;6250716;28;20049;-74
2023/05/04 06:59:05;;;;;;;2.65;1.65;;;;;;;15.17;64.52;100390.75;6249772;28;20521;-74
2023/05/04 07:02:09;;;;;;;3.42;1.52;;;;;;;15.61;64.07;100393.63;6251164;28;20056;-74
2023/05/04 07:05:10;;;;;;;10.30;1.40;;;;;;;15.57;62.19;100393.00;6250517;28;20537;-71
2023/05/04 07:08:11;;;;;;;3.20;1.60;;;;;;;15.80;62.28;100393.06;6249597;28;20056;-71
2023/05/04 07:11:12;;;;;;;2.10;1.65;;;;;;;16.21;60.35;100395.06;6250281;28;20057;-71
2023/05/04 07:14:14;;;;;;;3.90;2.08;;;;;;;16.78;60.21;100398.44;6248972;28;20046;-71
2023/05/04 07:17:15;;;;;;;4.93;1.83;;;;;;;16.88;58.36;100382.72;6250975;28;20106;-71
2023/05/04 07:20:20;;;;;;;5.78;1.67;;;;;;;17.49;56.88;100380.22;6249375;28;20057;-71
2023/05/04 07:23:21;;;;;;;2.53;1.67;;;;;;;17.96;56.90;100384.25;6248943;28;20493;-71
2023/05/04 07:26:24;;;;;;;1.70;1.55;;;;;;;17.67;57.87;100382.28;6248991;28;20045;-71
2023/05/04 07:29:28;;;;;;;8.45;1.67;;;;;;;18.19;56.32;100382.22;6250512;28;20049;-75
2023/05/04 07:32:31;;;;;;;2.25;1.70;;;;;;;18.08;56.42;100386.63;6250126;28;20412;-75
2023/05/04 07:35:32;;;;;;;2.30;1.38;;;;;;;18.09;57.08;100377.72;6250488;28;20049;-74
2023/05/04 07:38:34;;;;;;;4.07;1.90;;;;;;;18.44;55.71;100386.16;6249950;28;20049;-75
2023/05/04 07:41:35;;;;;;;3.70;1.63;;;;;;;17.68;55.39;100387.41;6249313;28;20054;-75
2023/05/04 07:44:37;;;;;;;5.50;2.28;;;;;;;17.43;55.97;100395.75;6248561;28;20317;-75
2023/05/04 07:47:37;;;;;;;4.78;1.80;;;;;;;17.96;56.35;100384.25;6248788;28;20505;-75
2023/05/04 07:50:43;;;;;;;4.50;1.80;;;;;;;17.82;56.05;100398.59;6248712;28;20092;-75
2023/05/04 07:53:46;;;;;;;4.40;1.60;;;;;;;18.02;55.94;100399.56;6247804;28;20049;-72
2023/05/04 07:56:47;;;;;;;8.00;1.83;;;;;;;17.56;56.15;100400.81;6249470;28;20055;-71
2023/05/04 07:59:48;;;;;;;4.25;1.63;;;;;;;17.79;55.87;100404.13;6248626;28;20049;-71
2023/05/04 08:02:49;;;;;;;3.53;1.73;;;;;;;17.89;55.40;100405.88;6248337;28;20137;-75
2023/05/04 08:05:52;;;;;;;3.83;2.20;;;;;;;18.09;55.96;100401.50;6248319;28;20087;-75
2023/05/04 08:08:53;;;;;;;5.63;1.98;;;;;;;18.01;54.76;100393.41;6249142;28;20501;-74
2023/05/04 08:11:54;;;;;;;2.75;1.88;;;;;;;18.25;54.88;100394.91;6249536;28;20053;-75
2023/05/04 08:14:55;;;;;;;2.65;2.15;;;;;;;18.39;53.52;100393.66;6248127;28;20050;-75
2023/05/04 08:17:56;;;;;;;5.95;2.10;;;;;;;18.75;52.64;100386.91;6249705;28;20142;-75
2023/05/04 08:20:57;;;;;;;3.38;2.00;;;;;;;18.72;53.37;100388.00;6281199;28;20049;-75
2023/05/04 08:23:58;;;;;;;2.78;1.85;;;;;;;18.83;52.33;100392.34;6248092;28;20156;-75
2023/05/04 08:27:00;;;;;;;3.50;1.90;;;;;;;19.17;51.08;100391.94;6247777;28;20136;-74
2023/05/04 08:30:01;;;;;;;;;;;;;;;18.44;52.57;100389.63;6248440;28;20053;-74
2023/05/04 08:33:01;;;;;;;3.65;1.70;;;;;;;18.27;54.25;100393.78;6248750;28;19928;-75
2023/05/04 08:36:03;;;;;;;2.08;1.55;;;;;;;18.27;54.12;100388.50;6247542;28;20049;-75
2023/05/04 08:39:05;;;;;;;5.38;1.70;;;;;;;18.85;53.03;100395.69;6249258;28;20049;-74
2023/05/04 08:42:06;;;;;;;8.98;2.17;;;;;;;18.49;54.35;100390.09;6249033;28;20049;-74
2023/05/04 08:45:08;;;;;;;2.13;1.75;;;;;;;18.58;53.46;100387.59;6247169;28;20148;-74
2023/05/04 08:48:09;;;;;;;3.03;1.67;;;;;;;18.75;52.82;100391.34;6247228;28;20411;-74
2023/05/04 08:51:13;;;;;;;8.63;2.38;;;;;;;19.16;52.29;100390.25;6248630;28;20057;-74
2023/05/04 08:54:15;;;;;;;3.28;1.80;;;;;;;19.71;49.92;100394.91;6248678;28;20133;-74
2023/05/04 08:57:16;;;;;;;4.72;1.80;;;;;;;20.17;49.76;100395.81;6248358;28;20049;-75
2023/05/04 09:00:17;;;;;;;;;;;;;;;20.31;49.14;100390.03;6248725;28;20049;-74
2023/05/04 09:03:20;;;;;;;3.13;1.92;;;;;;;20.43;49.43;100398.63;6248256;28;20459;-74
2023/05/04 09:06:21;;;;;;;2.42;1.70;;;;;;;20.63;49.40;100390.56;6245631;28;20072;-74
2023/05/04 09:09:26;;;;;;;1.83;1.27;;;;;;;20.99;47.83;100395.88;6248279;28;20490;-75
2023/05/04 09:12:27;;;;;;;8.38;2.00;;;;;;;21.21;47.30;100395.38;6280108;28;20138;-75
2023/05/04 09:15:28;;;;;;;3.23;1.70;;;;;;;21.22;46.80;100394.38;6248222;28;20053;-75
2023/05/04 09:18:39;;;;;;;3.13;1.90;;;;;;;21.13;46.42;100385.53;6248293;28;20057;-75
2023/05/04 09:21:43;;;;;;;7.15;2.35;;;;;;;21.56;46.65;100387.50;6247821;28;20057;-75
2023/05/04 09:24:45;;;;;;;5.07;1.92;;;;;;;20.61;47.91;100387.22;6246407;28;20055;-75
2023/05/04 09:27:53;;;;;;;6.13;1.83;;;;;;;21.24;47.76;100387.09;6247807;28;20049;-75
2023/05/04 09:30:59;;;;;;;2.58;1.77;;;;;;;21.23;46.71;100379.28;6247404;28;20123;-75
2023/05/04 09:34:08;;;;;;;3.17;2.05;;;;;;;21.79;44.97;100387.81;6246265;28;20053;-75
2023/05/04 09:37:08;;;;;;;5.70;2.05;;;;;;;21.73;45.60;100374.16;6247231;28;20139;-75
2023/05/04 09:40:10;;;;;;;4.47;1.53;;;;;;;21.18;46.41;100373.63;6279343;28;20045;-75
2023/05/04 09:43:15;;;;;;;7.47;1.67;;;;;;;21.55;46.80;100368.09;6247018;28;20061;-75
2023/05/04 09:46:17;;;;;;;5.50;1.97;;;;;;;21.39;45.64;100370.63;6247305;28;20498;-72
2023/05/04 09:49:19;;;;;;;8.15;1.85;;;;;;;21.54;45.65;100369.09;6279142;28;20060;-72
2023/05/04 09:52:21;;;;;;;3.05;1.95;;;;;;;21.82;45.58;100366.25;6246925;28;20071;-72
2023/05/04 09:55:23;;;;;;;7.95;1.70;;;;;;;21.19;46.64;100372.63;6245803;28;20049;-71
2023/05/04 09:58:29;;;;;;;5.05;2.05;;;;;;;22.24;45.39;100360.13;6245636;28;20056;-72
2023/05/04 10:01:30;;;;;;;3.38;1.77;;;;;;;22.65;44.41;100358.38;6279084;28;20049;-72
2023/05/04 10:04:35;;;;;;;2.22;1.67;;;;;;;22.77;43.74;100355.38;6246577;28;20489;-73
2023/05/04 10:07:37;;;;;;;3.38;1.77;;;;;;;22.37;44.29;100349.03;6246667;28;20445;-72
2023/05/04 10:10:43;;;;;;;4.53;2.10;;;;;;;22.91;43.81;100350.22;6245565;28;20049;-72
2023/05/04 10:13:45;;;;;;;3.72;1.90;;;;;;;22.57;43.52;100350.41;6246577;28;20494;-72
2023/05/04 10:17:20;;;;;;;2.42;1.70;;;;;;;22.45;43.29;100352.53;6277793;28;20387;-71
2023/05/04 10:21:01;;;;;;;4.70;1.95;;;;;;;22.22;44.22;100346.16;6261392;28;20059;-72
2023/05/04 10:24:14;;;;;;;4.53;1.97;;;;;;;22.59;44.80;100347.53;6270758;28;20053;-72
2023/05/04 10:27:21;;;;;;;3.50;1.88;;;;;;;22.54;43.53;100340.91;6269061;28;20094;-72
2023/05/04 10:30:23;;;;;;;2.78;2.00;;;;;;;22.68;43.29;100341.25;6267786;28;20059;-72
2023/05/04 10:33:25;;;;;;;3.95;1.83;;;;;;;22.29;44.17;100340.03;6268807;28;20140;-72
2023/05/04 10:36:37;;;;;;;2.92;1.77;;;;;;;22.55;43.98;100331.13;6267555;28;20087;-72
2023/05/04 10:39:38;;;;;;;;;;;;;;;22.69;42.34;100334.94;6266820;28;20053;-72
2023/05/04 10:42:41;;;;;;;2.58;1.75;;;;;;;22.87;42.44;100334.78;6269821;28;19920;-72
2023/05/04 10:45:43;;;;;;;1.88;1.65;;;;;;;22.90;43.03;100324.63;6267556;28;20053;-72
2023/05/04 10:48:43;;;;;;;2.53;2.00;;;;;;;23.41;41.77;100328.91;6269431;28;20053;-72
2023/05/04 10:51:50;;;;;;;1.70;1.60;;;;;;;22.64;42.31;100316.81;6269228;28;20052;-72
2023/05/04 10:54:58;;;;;;;3.20;1.90;;;;;;;22.77;43.81;100318.16;6268637;28;20045;-72
2023/05/04 10:57:59;;;;;;;5.45;2.20;;;;;;;23.20;42.28;100324.13;6270625;28;20133;-72
2023/05/04 11:01:11;;;;;;;3.67;1.58;;;;;;;23.34;42.34;100318.09;6269952;28;20424;-73
2023/05/04 11:04:19;;;;;;;;;;;;;;;23.71;42.17;100312.16;6270071;28;20084;-73
2023/05/04 11:07:37;;;;;;;2.92;1.80;;;;;;;23.43;41.14;100308.25;6268775;28;19920;-72
2023/05/04 11:10:39;;;;;;;2.78;1.73;;;;;;;22.95;43.13;100305.50;6268310;28;20417;-73
2023/05/04 11:13:43;;;;;;;7.30;1.88;;;;;;;23.09;41.79;100304.03;6268429;28;20053;-72
2023/05/04 11:16:46;;;;;;;2.30;1.73;;;;;;;23.31;42.35;100310.47;6269118;28;20091;-72
2023/05/04 11:19:50;;;;;;;2.28;1.73;;;;;;;23.28;41.82;100295.66;6269703;28;20056;-72
2023/05/04 11:22:52;;;;;;;3.13;2.03;;;;;;;23.25;42.30;100303.16;6268115;28;20493;-72
2023/05/04 11:25:53;;;;;;;3.25;1.70;;;;;;;23.28;41.84;100300.16;6266721;28;20045;-72
2023/05/04 11:28:54;;;;;;;3.53;1.77;;;;;;;23.25;41.38;100295.19;6272591;28;20481;-73
2023/05/04 11:31:55;;;;;;;2.22;1.60;;;;;;;22.72;43.26;100294.72;6274867;28;20060;-73
2023/05/04 11:34:56;;;;;;;5.50;1.90;;;;;;;23.15;43.43;100291.88;6268359;28;20041;-73
2023/05/04 11:37:59;;;;;;;2.53;1.63;;;;;;;23.43;40.69;100284.28;6254190;28;20408;-73
2023/05/04 11:41:01;;;;;;;2.80;1.77;;;;;;;24.01;41.54;100279.56;6273176;28;20053;-73
2023/05/04 11:44:03;;;;;;;2.58;1.50;;;;;;;23.77;40.86;100277.88;6254691;28;20065;-73
2023/05/04 11:47:06;;;;;;;1.90;1.60;;;;;;;24.44;40.18;100282.59;6249517;28;20053;-74
2023/05/04 11:50:09;;;;;;;2.03;1.67;;;;;;;24.47;39.67;100275.09;6249335;28;20052;-73
2023/05/04 11:53:12;;;;;;;2.60;1.52;;;;;;;23.96;40.94;100273.94;6272152;28;20053;-73
2023/05/04 11:56:13;;;;;;;2.85;1.60;;;;;;;23.99;40.16;100271.75;6273731;28;20378;-73
2023/05/04 11:59:14;;;;;;;2.53;1.60;;;;;;;23.92;40.26;100265.47;6273493;28;20053;-73
2023/05/04 12:02:17;;;;;;;2.50;1.77;;;;;;;23.63;41.94;100271.41;6273983;28;20045;-73
2023/05/04 12:05:18;;;;;;;5.10;2.15;;;;;;;23.10;42.12;100268.41;6273552;28;20160;-73
2023/05/04 12:08:33;;;;;;;3.00;1.43;;;;;;;23.56;40.83;100267.78;6264002;28;20045;-73
2023/05/04 12:11:34;;;;;;;4.72;1.67;;;;;;;23.57;40.56;100262.28;6246968;28;20312;-73
2023/05/04 12:14:48;;;;;;;4.28;1.63;;;;;;;23.44;40.64;100273.47;6247586;28;20053;-73
2023/05/04 12:17:51;;;;;;;2.65;1.77;;;;;;;23.68;39.75;100261.06;6248404;28;20083;-73
2023/05/04 12:20:52;;;;;;;1.45;1.30;;;;;;;24.40;39.45;100266.16;6247581;28;20401;-73
2023/05/04 12:23:55;;;;;;;1.60;1.50;;;;;;;23.73;40.64;100261.38;6247236;28;20050;-73
2023/05/04 12:26:56;;;;;;;6.15;1.50;;;;;;;23.98;39.42;100259.44;6247216;28;20383;-73
2023/05/04 12:29:56;;;;;;;3.07;1.80;;;;;;;24.07;39.54;100249.53;6246304;28;20050;-73
2023/05/04 12:32:57;;;;;;;2.23;1.57;;;;;;;23.82;39.67;100251.53;6247392;28;20056;-74
2023/05/04 12:35:59;;;;;;;4.57;1.60;;;;;;;24.36;39.34;100251.53;6247222;28;20061;-75
2023/05/04 12:39:00;;;;;;;4.85;1.40;;;;;;;24.30;38.61;100254.91;6247494;28;20093;-76
2023/05/04 12:42:02;;;;;;;1.45;1.35;;;;;;;23.64;41.25;100251.75;6253192;28;20055;-76
2023/05/04 12:45:06;;;;;;;2.70;1.88;;;;;;;23.78;40.26;100251.03;6272319;28;20600;-76
2023/05/04 12:48:07;;;;;;;3.67;1.85;;;;;;;23.09;41.68;100245.47;6270926;28;20528;-76
2023/05/04 12:51:08;;;;;;;2.13;1.40;;;;;;;23.05;42.90;100252.13;6272452;28;20080;-76
2023/05/04 12:54:08;;;;;;;1.50;1.40;;;;;;;22.77;42.65;100255.13;6272876;28;20052;-76
2023/05/04 12:57:11;;;;;;;4.57;1.77;;;;;;;22.47;43.04;100249.50;6272774;28;20049;-76
2023/05/04 13:00:16;;;;;;;3.45;1.83;;;;;;;22.01;44.10;100246.47;6271738;28;20049;-76
2023/05/04 13:03:17;;;;;;;3.35;1.85;;;;;;;22.32;44.03;100245.84;6271550;28;20500;-76
2023/05/04 13:06:18;;;;;;;2.80;1.48;;;;;;;22.13;44.56;100252.25;6272629;28;20434;-73
2023/05/04 13:09:19;;;;;;;4.97;1.83;;;;;;;21.99;43.32;100251.09;6271487;28;20136;-73
2023/05/04 13:12:20;;;;;;;2.70;1.87;;;;;;;21.71;43.97;100239.91;6272515;28;20049;-73
2023/05/04 13:15:21;;;;;;;1.57;1.40;;;;;;;21.94;44.02;100248.91;6272488;28;20290;-73
2023/05/04 13:18:25;;;;;;;3.60;1.70;;;;;;;22.30;43.33;100234.56;6271095;28;20103;-73
2023/05/04 13:21:26;;;;;;;3.35;1.60;;;;;;;22.11;42.64;100235.66;6272440;28;20060;-73
2023/05/04 13:24:28;;;;;;;2.57;1.80;;;;;;;21.69;43.26;100241.88;6271104;28;20171;-72
2023/05/04 13:27:31;;;;;;;2.90;1.35;;;;;;;22.42;42.87;100237.69;6272372;28;20106;-73
2023/05/04 13:30:39;;;;;;;2.58;1.45;;;;;;;22.09;43.36;100225.22;6271997;28;20049;-76
2023/05/04 13:33:40;;;;;;;3.57;1.70;;;;;;;22.05;42.92;100229.19;6271020;28;20512;-76
2023/05/04 13:36:43;;;;;;;2.83;1.80;;;;;;;21.75;43.63;100225.31;6270700;28;20328;-76
2023/05/04 13:39:45;;;;;;;2.67;1.70;;;;;;;21.34;43.79;100228.59;6270706;28;20099;-76
2023/05/04 13:42:48;;;;;;;2.45;1.77;;;;;;;22.22;43.16;100226.56;6270752;28;20049;-75
2023/05/04 13:45:51;;;;;;;3.55;1.95;;;;;;;22.02;41.36;100215.41;6271483;28;20432;-76
2023/05/04 13:48:52;;;;;;;1.80;1.50;;;;;;;22.28;42.42;100217.97;6270899;28;20064;-76
2023/05/04 13:51:56;;;;;;;2.37;1.47;;;;;;;22.59;42.45;100220.75;6271120;28;20390;-75
2023/05/04 13:54:58;;;;;;;3.03;1.48;;;;;;;22.73;41.02;100214.75;6271483;28;20424;-76
2023/05/04 13:57:59;;;;;;;2.00;1.60;;;;;;;22.46;41.88;100207.94;6270372;28;20049;-73
2023/05/04 14:01:03;;;;;;;2.28;1.35;;;;;;;22.61;41.43;100201.97;6270254;28;20135;-73
2023/05/04 14:04:05;;;;;;;3.22;1.80;;;;;;;22.89;41.33;100202.41;6270193;28;20064;-73
2023/05/04 14:07:07;;;;;;;6.13;1.70;;;;;;;22.43;41.91;100199.50;6270060;28;20053;-73
2023/05/04 14:10:11;;;;;;;1.17;1.05;;;;;;;22.08;42.57;100206.78;6271227;28;20052;-76